sensor_id;sensor_type;location;lat;lon;timestamp;temperature;humidity
15394;DHT22;7795;47.986;11.868;2023-04-12T00:00:33;7.60;72.50
15394;DHT22;7795;47.986;11.868;2023-04-12T00:03:00;7.60;72.50
15394;DHT22;7795;47.986;11.868;2023-04-12T00:05:29;7.50;72.50
15394;DHT22;7795;47.986;11.868;2023-04-12T00:07:55;7.50;72.60
15394;DHT22;7795;47.986;11.868;2023-04-12T00:10:21;7.50;72.70
15394;DHT22;7795;47.986;11.868;2023-04-12T00:12:47;7.50;72.80
15394;DHT22;7795;47.986;11.868;2023-04-12T00:15:13;7.50;73.00
15394;DHT22;7795;47.986;11.868;2023-04-12T00:17:39;7.50;73.00
15394;DHT22;7795;47.986;11.868;2023-04-12T00:20:06;7.50;73.10
15394;DHT22;7795;47.986;11.868;2023-04-12T00:22:38;7.50;73.20
15394;DHT22;7795;47.986;11.868;2023-04-12T00:25:04;7.50;74.00
15394;DHT22;7795;47.986;11.868;2023-04-12T00:27:30;7.50;73.30
15394;DHT22;7795;47.986;11.868;2023-04-12T00:29:56;7.50;73.30
15394;DHT22;7795;47.986;11.868;2023-04-12T00:32:21;7.50;73.40
15394;DHT22;7795;47.986;11.868;2023-04-12T00:34:47;7.50;73.40
15394;DHT22;7795;47.986;11.868;2023-04-12T00:37:13;7.50;73.40
15394;DHT22;7795;47.986;11.868;2023-04-12T00:39:40;7.50;73.40
15394;DHT22;7795;47.986;11.868;2023-04-12T00:42:06;7.50;73.50
15394;DHT22;7795;47.986;11.868;2023-04-12T00:44:32;7.60;73.60
15394;DHT22;7795;47.986;11.868;2023-04-12T00:46:58;7.50;73.50
15394;DHT22;7795;47.986;11.868;2023-04-12T00:49:25;7.50;73.50
15394;DHT22;7795;47.986;11.868;2023-04-12T00:51:57;7.50;73.50
15394;DHT22;7795;47.986;11.868;2023-04-12T00:54:24;7.50;73.50
15394;DHT22;7795;47.986;11.868;2023-04-12T00:56:51;7.50;73.50
15394;DHT22;7795;47.986;11.868;2023-04-12T00:59:17;7.50;73.50
15394;DHT22;7795;47.986;11.868;2023-04-12T01:01:43;7.50;73.50
15394;DHT22;7795;47.986;11.868;2023-04-12T01:04:09;7.50;73.50
15394;DHT22;7795;47.986;11.868;2023-04-12T01:06:48;7.50;73.50
15394;DHT22;7795;47.986;11.868;2023-04-12T01:09:26;7.50;73.70
15394;DHT22;7795;47.986;11.868;2023-04-12T01:12:02;7.60;73.80
15394;DHT22;7795;47.986;11.868;2023-04-12T01:14:36;7.50;74.40
15394;DHT22;7795;47.986;11.868;2023-04-12T01:17:08;7.60;73.70
15394;DHT22;7795;47.986;11.868;2023-04-12T01:19:52;7.60;73.70
15394;DHT22;7795;47.986;11.868;2023-04-12T01:25:35;7.60;74.00
15394;DHT22;7795;47.986;11.868;2023-04-12T01:28:06;7.60;73.80
15394;DHT22;7795;47.986;11.868;2023-04-12T01:30:33;7.60;74.60
15394;DHT22;7795;47.986;11.868;2023-04-12T01:33:00;7.60;73.80
15394;DHT22;7795;47.986;11.868;2023-04-12T01:35:30;7.60;73.90
15394;DHT22;7795;47.986;11.868;2023-04-12T01:37:57;7.60;74.10
15394;DHT22;7795;47.986;11.868;2023-04-12T01:40:24;7.60;74.10
15394;DHT22;7795;47.986;11.868;2023-04-12T01:43:04;7.60;74.20
15394;DHT22;7795;47.986;11.868;2023-04-12T01:45:30;7.60;74.60
15394;DHT22;7795;47.986;11.868;2023-04-12T01:47:56;7.60;74.30
15394;DHT22;7795;47.986;11.868;2023-04-12T01:50:26;7.60;74.30
15394;DHT22;7795;47.986;11.868;2023-04-12T01:53:02;7.70;74.40
15394;DHT22;7795;47.986;11.868;2023-04-12T01:55:29;7.70;74.40
15394;DHT22;7795;47.986;11.868;2023-04-12T01:57:56;7.70;74.30
15394;DHT22;7795;47.986;11.868;2023-04-12T02:00:24;7.70;74.30
15394;DHT22;7795;47.986;11.868;2023-04-12T02:02:52;7.70;74.40
15394;DHT22;7795;47.986;11.868;2023-04-12T02:05:18;7.70;74.30
15394;DHT22;7795;47.986;11.868;2023-04-12T02:07:45;7.70;74.30
15394;DHT22;7795;47.986;11.868;2023-04-12T02:10:12;7.70;74.30
15394;DHT22;7795;47.986;11.868;2023-04-12T02:12:38;7.70;74.40
15394;DHT22;7795;47.986;11.868;2023-04-12T02:15:05;7.70;74.30
15394;DHT22;7795;47.986;11.868;2023-04-12T02:17:33;7.70;74.40
15394;DHT22;7795;47.986;11.868;2023-04-12T02:20:03;7.80;74.50
15394;DHT22;7795;47.986;11.868;2023-04-12T02:22:34;7.80;74.50
15394;DHT22;7795;47.986;11.868;2023-04-12T02:25:00;7.80;74.60
15394;DHT22;7795;47.986;11.868;2023-04-12T02:27:26;7.80;74.60
15394;DHT22;7795;47.986;11.868;2023-04-12T02:29:51;7.80;74.60
15394;DHT22;7795;47.986;11.868;2023-04-12T02:32:17;7.80;74.60
15394;DHT22;7795;47.986;11.868;2023-04-12T02:34:44;7.80;74.60
15394;DHT22;7795;47.986;11.868;2023-04-12T02:37:15;7.90;74.70
15394;DHT22;7795;47.986;11.868;2023-04-12T02:39:42;7.90;74.70
15394;DHT22;7795;47.986;11.868;2023-04-12T02:42:09;7.90;74.80
15394;DHT22;7795;47.986;11.868;2023-04-12T02:44:34;7.90;74.80
15394;DHT22;7795;47.986;11.868;2023-04-12T02:47:00;7.90;74.80
15394;DHT22;7795;47.986;11.868;2023-04-12T02:49:26;7.90;74.80
15394;DHT22;7795;47.986;11.868;2023-04-12T02:51:53;8.00;74.90
15394;DHT22;7795;47.986;11.868;2023-04-12T02:54:19;8.00;75.00
15394;DHT22;7795;47.986;11.868;2023-04-12T02:56:45;8.00;75.00
15394;DHT22;7795;47.986;11.868;2023-04-12T02:59:11;8.00;75.00
15394;DHT22;7795;47.986;11.868;2023-04-12T03:01:37;8.10;75.10
15394;DHT22;7795;47.986;11.868;2023-04-12T03:04:05;8.00;75.00
15394;DHT22;7795;47.986;11.868;2023-04-12T03:06:30;8.10;75.00
15394;DHT22;7795;47.986;11.868;2023-04-12T03:08:57;8.10;75.00
15394;DHT22;7795;47.986;11.868;2023-04-12T03:11:23;8.10;74.90
15394;DHT22;7795;47.986;11.868;2023-04-12T03:13:49;8.10;74.80
15394;DHT22;7795;47.986;11.868;2023-04-12T03:16:20;8.10;74.90
15394;DHT22;7795;47.986;11.868;2023-04-12T03:18:48;8.00;74.90
15394;DHT22;7795;47.986;11.868;2023-04-12T03:21:14;8.00;74.90
15394;DHT22;7795;47.986;11.868;2023-04-12T03:23:40;8.00;75.10
15394;DHT22;7795;47.986;11.868;2023-04-12T03:26:08;8.00;75.20
15394;DHT22;7795;47.986;11.868;2023-04-12T03:28:34;8.00;75.30
15394;DHT22;7795;47.986;11.868;2023-04-12T03:31:00;8.00;75.30
15394;DHT22;7795;47.986;11.868;2023-04-12T03:33:26;8.00;75.50
15394;DHT22;7795;47.986;11.868;2023-04-12T03:35:52;8.00;75.60
15394;DHT22;7795;47.986;11.868;2023-04-12T03:38:17;8.00;75.80
15394;DHT22;7795;47.986;11.868;2023-04-12T03:40:43;8.00;76.60
15394;DHT22;7795;47.986;11.868;2023-04-12T03:43:10;8.00;76.10
15394;DHT22;7795;47.986;11.868;2023-04-12T03:45:36;8.00;76.40
15394;DHT22;7795;47.986;11.868;2023-04-12T03:48:02;8.00;76.40
15394;DHT22;7795;47.986;11.868;2023-04-12T03:50:28;8.10;76.60
15394;DHT22;7795;47.986;11.868;2023-04-12T03:52:56;8.10;76.70
15394;DHT22;7795;47.986;11.868;2023-04-12T03:55:22;8.10;76.80
15394;DHT22;7795;47.986;11.868;2023-04-12T03:57:47;8.20;76.90
15394;DHT22;7795;47.986;11.868;2023-04-12T04:00:15;8.20;77.00
15394;DHT22;7795;47.986;11.868;2023-04-12T04:02:41;8.20;77.10
15394;DHT22;7795;47.986;11.868;2023-04-12T04:05:07;8.30;77.00
15394;DHT22;7795;47.986;11.868;2023-04-12T04:07:34;8.30;77.10
15394;DHT22;7795;47.986;11.868;2023-04-12T04:10:00;8.30;77.00
15394;DHT22;7795;47.986;11.868;2023-04-12T04:12:27;8.40;77.10
15394;DHT22;7795;47.986;11.868;2023-04-12T04:14:52;8.40;77.00
15394;DHT22;7795;47.986;11.868;2023-04-12T04:17:20;8.50;77.10
15394;DHT22;7795;47.986;11.868;2023-04-12T04:19:45;8.50;77.20
15394;DHT22;7795;47.986;11.868;2023-04-12T04:22:11;8.50;77.00
15394;DHT22;7795;47.986;11.868;2023-04-12T04:24:37;8.60;77.00
15394;DHT22;7795;47.986;11.868;2023-04-12T04:27:03;8.60;76.90
15394;DHT22;7795;47.986;11.868;2023-04-12T04:29:29;8.70;76.90
15394;DHT22;7795;47.986;11.868;2023-04-12T04:31:56;8.70;77.00
15394;DHT22;7795;47.986;11.868;2023-04-12T04:34:23;8.70;77.00
15394;DHT22;7795;47.986;11.868;2023-04-12T04:36:50;8.70;77.00
15394;DHT22;7795;47.986;11.868;2023-04-12T04:39:16;8.70;76.90
15394;DHT22;7795;47.986;11.868;2023-04-12T04:41:42;8.80;77.00
15394;DHT22;7795;47.986;11.868;2023-04-12T04:44:07;8.80;77.00
15394;DHT22;7795;47.986;11.868;2023-04-12T04:46:34;8.80;77.10
15394;DHT22;7795;47.986;11.868;2023-04-12T04:49:02;8.90;77.20
15394;DHT22;7795;47.986;11.868;2023-04-12T04:51:30;8.80;77.20
15394;DHT22;7795;47.986;11.868;2023-04-12T04:53:55;8.80;77.20
15394;DHT22;7795;47.986;11.868;2023-04-12T04:56:21;8.90;77.20
15394;DHT22;7795;47.986;11.868;2023-04-12T04:58:49;8.90;77.20
15394;DHT22;7795;47.986;11.868;2023-04-12T05:01:15;8.90;77.20
15394;DHT22;7795;47.986;11.868;2023-04-12T05:03:41;8.90;77.20
15394;DHT22;7795;47.986;11.868;2023-04-12T05:06:09;8.90;77.30
15394;DHT22;7795;47.986;11.868;2023-04-12T05:08:36;9.00;77.40
15394;DHT22;7795;47.986;11.868;2023-04-12T05:11:02;9.00;77.40
15394;DHT22;7795;47.986;11.868;2023-04-12T05:13:27;9.00;77.40
15394;DHT22;7795;47.986;11.868;2023-04-12T05:15:53;9.00;77.40
15394;DHT22;7795;47.986;11.868;2023-04-12T05:18:19;9.00;77.30
15394;DHT22;7795;47.986;11.868;2023-04-12T05:20:45;9.00;77.30
15394;DHT22;7795;47.986;11.868;2023-04-12T05:23:12;9.00;77.40
15394;DHT22;7795;47.986;11.868;2023-04-12T05:25:44;9.00;77.40
15394;DHT22;7795;47.986;11.868;2023-04-12T05:28:12;9.00;77.60
15394;DHT22;7795;47.986;11.868;2023-04-12T05:30:38;9.00;77.50
15394;DHT22;7795;47.986;11.868;2023-04-12T05:33:04;9.00;77.50
15394;DHT22;7795;47.986;11.868;2023-04-12T05:35:30;9.00;77.60
15394;DHT22;7795;47.986;11.868;2023-04-12T05:37:56;9.00;77.70
15394;DHT22;7795;47.986;11.868;2023-04-12T05:40:21;9.10;77.90
15394;DHT22;7795;47.986;11.868;2023-04-12T05:42:48;9.10;77.90
15394;DHT22;7795;47.986;11.868;2023-04-12T05:45:14;9.10;78.00
15394;DHT22;7795;47.986;11.868;2023-04-12T05:47:40;9.10;77.90
15394;DHT22;7795;47.986;11.868;2023-04-12T05:50:07;9.10;77.90
15394;DHT22;7795;47.986;11.868;2023-04-12T05:52:33;9.20;78.10
15394;DHT22;7795;47.986;11.868;2023-04-12T05:54:58;9.20;78.00
15394;DHT22;7795;47.986;11.868;2023-04-12T05:57:24;9.20;78.10
15394;DHT22;7795;47.986;11.868;2023-04-12T05:59:52;9.20;78.10
15394;DHT22;7795;47.986;11.868;2023-04-12T06:02:19;9.20;78.10
15394;DHT22;7795;47.986;11.868;2023-04-12T06:04:45;9.20;78.10
15394;DHT22;7795;47.986;11.868;2023-04-12T06:07:10;9.20;78.10
15394;DHT22;7795;47.986;11.868;2023-04-12T06:09:36;9.20;78.10
15394;DHT22;7795;47.986;11.868;2023-04-12T06:12:02;9.30;78.10
15394;DHT22;7795;47.986;11.868;2023-04-12T06:14:28;9.30;78.00
15394;DHT22;7795;47.986;11.868;2023-04-12T06:16:55;9.30;78.10
15394;DHT22;7795;47.986;11.868;2023-04-12T06:19:21;9.30;78.20
15394;DHT22;7795;47.986;11.868;2023-04-12T06:21:47;9.30;78.10
15394;DHT22;7795;47.986;11.868;2023-04-12T06:24:12;9.30;78.20
15394;DHT22;7795;47.986;11.868;2023-04-12T06:26:38;9.30;78.10
15394;DHT22;7795;47.986;11.868;2023-04-12T06:29:04;9.40;78.20
15394;DHT22;7795;47.986;11.868;2023-04-12T06:31:30;9.40;78.20
15394;DHT22;7795;47.986;11.868;2023-04-12T06:33:57;9.40;78.10
15394;DHT22;7795;47.986;11.868;2023-04-12T06:36:23;9.50;78.20
15394;DHT22;7795;47.986;11.868;2023-04-12T06:38:48;9.50;78.10
15394;DHT22;7795;47.986;11.868;2023-04-12T06:41:15;9.50;78.10
15394;DHT22;7795;47.986;11.868;2023-04-12T06:43:41;9.50;78.10
15394;DHT22;7795;47.986;11.868;2023-04-12T06:46:07;9.50;78.10
15394;DHT22;7795;47.986;11.868;2023-04-12T06:48:33;9.60;78.10
15394;DHT22;7795;47.986;11.868;2023-04-12T06:51:00;9.60;78.20
15394;DHT22;7795;47.986;11.868;2023-04-12T06:53:26;9.60;78.20
15394;DHT22;7795;47.986;11.868;2023-04-12T06:55:52;9.60;78.20
15394;DHT22;7795;47.986;11.868;2023-04-12T06:58:18;9.70;78.00
15394;DHT22;7795;47.986;11.868;2023-04-12T07:00:44;9.70;78.00
15394;DHT22;7795;47.986;11.868;2023-04-12T07:03:10;9.70;78.10
15394;DHT22;7795;47.986;11.868;2023-04-12T07:05:37;9.70;77.90
15394;DHT22;7795;47.986;11.868;2023-04-12T07:08:04;9.80;77.90
15394;DHT22;7795;47.986;11.868;2023-04-12T07:10:30;9.80;77.80
15394;DHT22;7795;47.986;11.868;2023-04-12T07:12:57;9.80;77.80
15394;DHT22;7795;47.986;11.868;2023-04-12T07:15:27;9.80;77.80
15394;DHT22;7795;47.986;11.868;2023-04-12T07:17:53;9.90;77.90
15394;DHT22;7795;47.986;11.868;2023-04-12T07:20:18;9.90;77.90
15394;DHT22;7795;47.986;11.868;2023-04-12T07:22:44;9.90;77.90
15394;DHT22;7795;47.986;11.868;2023-04-12T07:25:11;9.90;77.90
15394;DHT22;7795;47.986;11.868;2023-04-12T07:27:37;10.00;77.90
15394;DHT22;7795;47.986;11.868;2023-04-12T07:30:04;10.00;77.80
15394;DHT22;7795;47.986;11.868;2023-04-12T07:32:30;10.00;77.70
15394;DHT22;7795;47.986;11.868;2023-04-12T07:34:56;10.10;77.80
15394;DHT22;7795;47.986;11.868;2023-04-12T07:37:22;10.20;77.90
15394;DHT22;7795;47.986;11.868;2023-04-12T07:39:47;10.20;77.80
15394;DHT22;7795;47.986;11.868;2023-04-12T07:42:16;10.20;77.80
15394;DHT22;7795;47.986;11.868;2023-04-12T07:44:42;10.30;77.90
15394;DHT22;7795;47.986;11.868;2023-04-12T07:47:07;10.30;77.90
15394;DHT22;7795;47.986;11.868;2023-04-12T07:49:33;10.40;77.90
15394;DHT22;7795;47.986;11.868;2023-04-12T07:51:59;10.40;78.00
15394;DHT22;7795;47.986;11.868;2023-04-12T07:54:26;10.50;78.00
15394;DHT22;7795;47.986;11.868;2023-04-12T07:56:59;10.50;78.10
15394;DHT22;7795;47.986;11.868;2023-04-12T07:59:27;10.60;78.20
15394;DHT22;7795;47.986;11.868;2023-04-12T08:01:53;10.60;78.10
15394;DHT22;7795;47.986;11.868;2023-04-12T08:04:19;10.70;78.10
15394;DHT22;7795;47.986;11.868;2023-04-12T08:06:45;10.70;78.00
15394;DHT22;7795;47.986;11.868;2023-04-12T08:09:11;10.70;78.10
15394;DHT22;7795;47.986;11.868;2023-04-12T08:11:37;10.80;78.20
15394;DHT22;7795;47.986;11.868;2023-04-12T08:14:03;10.80;78.10
15394;DHT22;7795;47.986;11.868;2023-04-12T08:16:30;10.90;78.00
15394;DHT22;7795;47.986;11.868;2023-04-12T08:18:57;10.90;77.90
15394;DHT22;7795;47.986;11.868;2023-04-12T08:21:22;11.00;77.80
15394;DHT22;7795;47.986;11.868;2023-04-12T08:23:48;11.10;77.90
15394;DHT22;7795;47.986;11.868;2023-04-12T08:26:15;11.10;77.70
15394;DHT22;7795;47.986;11.868;2023-04-12T08:28:41;11.20;77.70
15394;DHT22;7795;47.986;11.868;2023-04-12T08:31:07;11.20;77.70
15394;DHT22;7795;47.986;11.868;2023-04-12T08:33:34;11.20;77.70
15394;DHT22;7795;47.986;11.868;2023-04-12T08:36:00;11.30;78.00
15394;DHT22;7795;47.986;11.868;2023-04-12T08:38:26;11.40;77.90
15394;DHT22;7795;47.986;11.868;2023-04-12T08:40:52;11.40;77.80
15394;DHT22;7795;47.986;11.868;2023-04-12T08:43:18;11.50;77.80
15394;DHT22;7795;47.986;11.868;2023-04-12T08:45:45;11.50;77.70
15394;DHT22;7795;47.986;11.868;2023-04-12T08:48:11;11.60;77.70
15394;DHT22;7795;47.986;11.868;2023-04-12T08:50:41;11.60;77.60
15394;DHT22;7795;47.986;11.868;2023-04-12T08:53:09;11.70;77.70
15394;DHT22;7795;47.986;11.868;2023-04-12T08:55:35;11.70;77.50
15394;DHT22;7795;47.986;11.868;2023-04-12T08:58:02;11.80;77.40
15394;DHT22;7795;47.986;11.868;2023-04-12T09:00:32;11.80;77.20
15394;DHT22;7795;47.986;11.868;2023-04-12T09:02:58;11.80;77.20
15394;DHT22;7795;47.986;11.868;2023-04-12T09:05:27;11.80;77.30
15394;DHT22;7795;47.986;11.868;2023-04-12T09:07:55;11.80;77.40
15394;DHT22;7795;47.986;11.868;2023-04-12T09:10:29;11.90;77.50
15394;DHT22;7795;47.986;11.868;2023-04-12T09:12:57;11.90;77.70
15394;DHT22;7795;47.986;11.868;2023-04-12T09:15:23;11.90;77.50
15394;DHT22;7795;47.986;11.868;2023-04-12T09:18:01;12.00;77.60
15394;DHT22;7795;47.986;11.868;2023-04-12T09:20:27;12.00;77.80
15394;DHT22;7795;47.986;11.868;2023-04-12T09:22:55;12.00;77.50
15394;DHT22;7795;47.986;11.868;2023-04-12T09:25:38;12.00;77.50
15394;DHT22;7795;47.986;11.868;2023-04-12T09:28:16;12.10;77.70
15394;DHT22;7795;47.986;11.868;2023-04-12T09:30:43;12.10;77.80
15394;DHT22;7795;47.986;11.868;2023-04-12T09:33:10;12.10;77.60
15394;DHT22;7795;47.986;11.868;2023-04-12T09:35:36;12.20;78.60
15394;DHT22;7795;47.986;11.868;2023-04-12T09:38:07;12.20;77.80
15394;DHT22;7795;47.986;11.868;2023-04-12T09:40:34;12.30;77.90
15394;DHT22;7795;47.986;11.868;2023-04-12T09:43:01;12.30;77.80
15394;DHT22;7795;47.986;11.868;2023-04-12T09:45:28;12.30;78.60
15394;DHT22;7795;47.986;11.868;2023-04-12T09:47:56;12.40;78.10
15394;DHT22;7795;47.986;11.868;2023-04-12T09:50:23;12.40;78.00
15394;DHT22;7795;47.986;11.868;2023-04-12T09:52:49;12.50;78.10
15394;DHT22;7795;47.986;11.868;2023-04-12T09:55:17;12.50;78.10
15394;DHT22;7795;47.986;11.868;2023-04-12T09:57:44;12.60;78.30
15394;DHT22;7795;47.986;11.868;2023-04-12T10:00:12;12.60;78.20
15394;DHT22;7795;47.986;11.868;2023-04-12T10:02:43;12.70;78.10
15394;DHT22;7795;47.986;11.868;2023-04-12T10:05:09;12.70;77.80
15394;DHT22;7795;47.986;11.868;2023-04-12T10:07:39;12.80;77.80
15394;DHT22;7795;47.986;11.868;2023-04-12T10:10:09;12.90;77.90
15394;DHT22;7795;47.986;11.868;2023-04-12T10:12:39;12.90;77.80
15394;DHT22;7795;47.986;11.868;2023-04-12T10:15:07;13.00;77.80
15394;DHT22;7795;47.986;11.868;2023-04-12T10:17:40;13.00;77.70
15394;DHT22;7795;47.986;11.868;2023-04-12T10:20:07;13.10;77.60
15394;DHT22;7795;47.986;11.868;2023-04-12T10:22:34;13.10;77.30
15394;DHT22;7795;47.986;11.868;2023-04-12T10:25:00;13.10;76.90
15394;DHT22;7795;47.986;11.868;2023-04-12T10:27:27;13.20;76.90
15394;DHT22;7795;47.986;11.868;2023-04-12T10:30:19;13.20;76.90
15394;DHT22;7795;47.986;11.868;2023-04-12T10:32:45;13.30;77.20
15394;DHT22;7795;47.986;11.868;2023-04-12T10:35:11;13.40;77.10
15394;DHT22;7795;47.986;11.868;2023-04-12T10:37:56;13.40;76.90
15394;DHT22;7795;47.986;11.868;2023-04-12T10:40:22;13.40;77.10
15394;DHT22;7795;47.986;11.868;2023-04-12T10:42:48;13.50;76.80
15394;DHT22;7795;47.986;11.868;2023-04-12T10:45:42;13.50;76.40
15394;DHT22;7795;47.986;11.868;2023-04-12T10:48:28;13.60;76.10
15394;DHT22;7795;47.986;11.868;2023-04-12T10:51:11;13.60;75.80
15394;DHT22;7795;47.986;11.868;2023-04-12T10:53:38;13.60;75.30
15394;DHT22;7795;47.986;11.868;2023-04-12T10:56:37;13.60;75.50
15394;DHT22;7795;47.986;11.868;2023-04-12T10:59:03;13.70;75.10
15394;DHT22;7795;47.986;11.868;2023-04-12T11:01:31;13.70;75.60
15394;DHT22;7795;47.986;11.868;2023-04-12T11:04:24;13.70;75.60
15394;DHT22;7795;47.986;11.868;2023-04-12T11:06:56;13.80;75.30
15394;DHT22;7795;47.986;11.868;2023-04-12T11:09:25;13.80;75.40
15394;DHT22;7795;47.986;11.868;2023-04-12T11:11:56;13.80;75.40
15394;DHT22;7795;47.986;11.868;2023-04-12T11:14:26;13.90;75.40
15394;DHT22;7795;47.986;11.868;2023-04-12T11:17:24;13.90;75.60
15394;DHT22;7795;47.986;11.868;2023-04-12T11:19:58;14.00;74.90
15394;DHT22;7795;47.986;11.868;2023-04-12T11:22:26;14.10;74.80
15394;DHT22;7795;47.986;11.868;2023-04-12T11:24:54;14.20;75.00
15394;DHT22;7795;47.986;11.868;2023-04-12T11:27:21;14.30;75.00
15394;DHT22;7795;47.986;11.868;2023-04-12T11:29:48;14.30;74.70
15394;DHT22;7795;47.986;11.868;2023-04-12T11:32:15;14.40;74.60
15394;DHT22;7795;47.986;11.868;2023-04-12T11:34:43;14.50;74.40
15394;DHT22;7795;47.986;11.868;2023-04-12T11:37:09;14.60;73.90
15394;DHT22;7795;47.986;11.868;2023-04-12T11:39:39;14.70;73.90
15394;DHT22;7795;47.986;11.868;2023-04-12T11:42:05;14.80;73.50
15394;DHT22;7795;47.986;11.868;2023-04-12T11:44:33;14.80;73.40
15394;DHT22;7795;47.986;11.868;2023-04-12T11:47:00;14.90;73.30
15394;DHT22;7795;47.986;11.868;2023-04-12T11:49:26;15.00;73.40
15394;DHT22;7795;47.986;11.868;2023-04-12T11:52:01;15.10;73.40
15394;DHT22;7795;47.986;11.868;2023-04-12T11:54:29;15.10;73.30
15394;DHT22;7795;47.986;11.868;2023-04-12T11:56:56;15.20;73.40
15394;DHT22;7795;47.986;11.868;2023-04-12T11:59:23;15.30;73.00
15394;DHT22;7795;47.986;11.868;2023-04-12T12:01:54;15.40;73.00
15394;DHT22;7795;47.986;11.868;2023-04-12T12:04:20;15.50;72.80
15394;DHT22;7795;47.986;11.868;2023-04-12T12:06:47;15.60;72.60
15394;DHT22;7795;47.986;11.868;2023-04-12T12:09:14;15.70;72.40
15394;DHT22;7795;47.986;11.868;2023-04-12T12:11:40;15.80;72.00
15394;DHT22;7795;47.986;11.868;2023-04-12T12:14:06;15.90;71.90
15394;DHT22;7795;47.986;11.868;2023-04-12T12:16:33;15.90;71.90
15394;DHT22;7795;47.986;11.868;2023-04-12T12:19:03;16.00;71.90
15394;DHT22;7795;47.986;11.868;2023-04-12T12:21:29;16.00;71.40
15394;DHT22;7795;47.986;11.868;2023-04-12T12:23:56;16.10;71.40
15394;DHT22;7795;47.986;11.868;2023-04-12T12:26:25;16.20;71.20
15394;DHT22;7795;47.986;11.868;2023-04-12T12:28:53;16.30;70.90
15394;DHT22;7795;47.986;11.868;2023-04-12T12:31:20;16.40;70.90
15394;DHT22;7795;47.986;11.868;2023-04-12T12:33:46;16.40;70.90
15394;DHT22;7795;47.986;11.868;2023-04-12T12:36:12;16.50;70.80
15394;DHT22;7795;47.986;11.868;2023-04-12T12:38:41;16.60;70.60
15394;DHT22;7795;47.986;11.868;2023-04-12T12:41:16;16.60;70.60
15394;DHT22;7795;47.986;11.868;2023-04-12T12:43:48;16.70;70.30
15394;DHT22;7795;47.986;11.868;2023-04-12T12:46:15;16.70;70.30
15394;DHT22;7795;47.986;11.868;2023-04-12T12:48:42;16.80;71.20
15394;DHT22;7795;47.986;11.868;2023-04-12T12:51:08;16.90;70.20
15394;DHT22;7795;47.986;11.868;2023-04-12T12:53:35;17.00;70.00
15394;DHT22;7795;47.986;11.868;2023-04-12T12:56:01;17.00;70.00
15394;DHT22;7795;47.986;11.868;2023-04-12T12:58:27;17.10;69.90
15394;DHT22;7795;47.986;11.868;2023-04-12T13:00:54;17.10;69.70
15394;DHT22;7795;47.986;11.868;2023-04-12T13:03:20;17.20;69.60
15394;DHT22;7795;47.986;11.868;2023-04-12T13:05:46;17.20;69.40
15394;DHT22;7795;47.986;11.868;2023-04-12T13:08:12;17.30;69.40
15394;DHT22;7795;47.986;11.868;2023-04-12T13:10:38;17.40;69.30
15394;DHT22;7795;47.986;11.868;2023-04-12T13:13:04;17.40;69.20
15394;DHT22;7795;47.986;11.868;2023-04-12T13:15:29;17.40;68.90
15394;DHT22;7795;47.986;11.868;2023-04-12T13:17:56;17.50;68.80
15394;DHT22;7795;47.986;11.868;2023-04-12T13:20:22;17.50;68.70
15394;DHT22;7795;47.986;11.868;2023-04-12T13:22:49;17.50;68.50
15394;DHT22;7795;47.986;11.868;2023-04-12T13:25:15;17.60;68.40
15394;DHT22;7795;47.986;11.868;2023-04-12T13:27:41;17.60;68.10
15394;DHT22;7795;47.986;11.868;2023-04-12T13:30:08;17.70;67.90
15394;DHT22;7795;47.986;11.868;2023-04-12T13:32:34;17.70;67.70
15394;DHT22;7795;47.986;11.868;2023-04-12T13:35:02;17.70;67.40
15394;DHT22;7795;47.986;11.868;2023-04-12T13:37:27;17.80;66.90
15394;DHT22;7795;47.986;11.868;2023-04-12T13:39:53;17.80;66.90
15394;DHT22;7795;47.986;11.868;2023-04-12T13:42:19;17.80;66.80
15394;DHT22;7795;47.986;11.868;2023-04-12T13:44:46;17.90;66.60
15394;DHT22;7795;47.986;11.868;2023-04-12T13:47:13;17.90;66.30
15394;DHT22;7795;47.986;11.868;2023-04-12T13:49:39;17.90;66.80
15394;DHT22;7795;47.986;11.868;2023-04-12T13:52:06;18.00;66.00
15394;DHT22;7795;47.986;11.868;2023-04-12T13:54:32;18.00;65.80
15394;DHT22;7795;47.986;11.868;2023-04-12T13:56:58;18.00;65.70
15394;DHT22;7795;47.986;11.868;2023-04-12T13:59:24;18.00;65.50
15394;DHT22;7795;47.986;11.868;2023-04-12T14:01:50;18.10;65.50
15394;DHT22;7795;47.986;11.868;2023-04-12T14:04:16;18.10;65.50
15394;DHT22;7795;47.986;11.868;2023-04-12T14:06:42;18.10;65.40
15394;DHT22;7795;47.986;11.868;2023-04-12T14:09:21;18.10;65.20
15394;DHT22;7795;47.986;11.868;2023-04-12T14:11:48;18.10;64.60
15394;DHT22;7795;47.986;11.868;2023-04-12T14:14:14;18.10;64.90
15394;DHT22;7795;47.986;11.868;2023-04-12T14:16:39;18.10;64.80
15394;DHT22;7795;47.986;11.868;2023-04-12T14:19:05;18.10;64.80
15394;DHT22;7795;47.986;11.868;2023-04-12T14:21:31;18.10;64.50
15394;DHT22;7795;47.986;11.868;2023-04-12T14:23:57;18.10;64.50
15394;DHT22;7795;47.986;11.868;2023-04-12T14:26:24;18.10;64.60
15394;DHT22;7795;47.986;11.868;2023-04-12T14:28:50;18.10;64.40
15394;DHT22;7795;47.986;11.868;2023-04-12T14:31:16;18.10;64.50
15394;DHT22;7795;47.986;11.868;2023-04-12T14:33:42;18.10;64.60
15394;DHT22;7795;47.986;11.868;2023-04-12T14:36:08;18.10;64.60
15394;DHT22;7795;47.986;11.868;2023-04-12T14:38:34;18.00;64.50
15394;DHT22;7795;47.986;11.868;2023-04-12T14:41:00;18.00;64.60
15394;DHT22;7795;47.986;11.868;2023-04-12T14:43:35;18.10;64.60
15394;DHT22;7795;47.986;11.868;2023-04-12T14:46:01;18.10;64.60
15394;DHT22;7795;47.986;11.868;2023-04-12T14:48:27;18.10;64.70
15394;DHT22;7795;47.986;11.868;2023-04-12T14:50:53;18.10;64.60
15394;DHT22;7795;47.986;11.868;2023-04-12T14:53:20;18.10;64.50
15394;DHT22;7795;47.986;11.868;2023-04-12T14:55:46;18.10;64.50
15394;DHT22;7795;47.986;11.868;2023-04-12T14:58:12;18.10;64.30
15394;DHT22;7795;47.986;11.868;2023-04-12T15:00:40;18.10;65.00
15394;DHT22;7795;47.986;11.868;2023-04-12T15:03:06;18.20;64.10
15394;DHT22;7795;47.986;11.868;2023-04-12T15:05:33;18.20;64.20
15394;DHT22;7795;47.986;11.868;2023-04-12T15:07:59;18.20;64.10
15394;DHT22;7795;47.986;11.868;2023-04-12T15:10:25;18.20;64.20
15394;DHT22;7795;47.986;11.868;2023-04-12T15:12:50;18.20;64.20
15394;DHT22;7795;47.986;11.868;2023-04-12T15:15:16;18.30;64.10
15394;DHT22;7795;47.986;11.868;2023-04-12T15:17:44;18.30;64.10
15394;DHT22;7795;47.986;11.868;2023-04-12T15:20:11;18.30;63.60
15394;DHT22;7795;47.986;11.868;2023-04-12T15:22:38;18.30;63.70
15394;DHT22;7795;47.986;11.868;2023-04-12T15:25:05;18.30;63.70
15394;DHT22;7795;47.986;11.868;2023-04-12T15:27:32;18.30;63.60
15394;DHT22;7795;47.986;11.868;2023-04-12T15:29:58;18.30;63.50
15394;DHT22;7795;47.986;11.868;2023-04-12T15:32:25;18.30;63.50
15394;DHT22;7795;47.986;11.868;2023-04-12T15:34:52;18.30;63.50
15394;DHT22;7795;47.986;11.868;2023-04-12T15:37:18;18.30;63.40
15394;DHT22;7795;47.986;11.868;2023-04-12T15:39:44;18.30;63.50
15394;DHT22;7795;47.986;11.868;2023-04-12T15:42:10;18.30;63.50